Nearby METAR Reports

 

LFLC - Clermont/Aulnat, France
Distance from station: S 1mi, 2km
Updated: Fri, 22-Feb-2019 7:00am CET
Clear
Clear
 Wind from W
Wind: W 2 mph , 4 km/h
Temperature: 32°F , 0°C
Dew Point: 28°F , -2°C
Humidity: 87%
Barometer: 30.5 inHg , 1033 hPa
Summary: Clear
Visibility: greater than 7 miles , 10 km
2019/02/22 06:00 LFLC 220600Z AUTO 26002KT CAVOK M00/M02 Q1033 TEMPO 4000 BR
LFMH - St Etienne/Bouth, France
Distance from station: ESE 57mi, 92km
Updated: Fri, 22-Feb-2019 7:00am CET
Partly Cloudy
Partly Cloudy
 Wind from calm
Wind: Calm
Temperature: 27°F , -3°C
Dew Point: 25°F , -4°C
Humidity: 93%
Barometer: 30.47 inHg , 1032 hPa
Clouds: Partly Cloudy
Visibility: 6 miles , 9 km
2019/02/22 06:00 LFMH 220600Z AUTO 00000KT 9000 NSC M03/M04 Q1032 TEMPO 2000 BR
 
LFLN - Saint Yan, France
Distance from station: NE 60mi, 96km
Updated: Fri, 22-Feb-2019 7:00am CET

 Wind from calm
Wind: Calm
Visibility: 1 mile , 1 km
2019/02/22 06:00 LFLN 220600Z AUTO 00000KT 1200 0300 R33/1300D BCFG NSC M02/M02 Q1033 TEMPO 0300 FZFG VV///
LFLW - Aurillac (aut), France
Distance from station: SSW 72mi, 116km
Updated: Fri, 22-Feb-2019 7:00am CET
Clear
Clear
 Wind from SSE
Wind: SSE 2 mph , 4 km/h
Temperature: 30°F , -1°C
Dew Point: 25°F , -4°C
Humidity: 80%
Barometer: 30.45 inHg , 1031 hPa
Summary: Clear
Visibility: greater than 7 miles , 10 km
2019/02/22 06:00 LFLW 220600Z AUTO 15002KT CAVOK M01/M04 Q1031 NOSIG
 
LFQG - Nevers/Fourchamb, France
Distance from station: N 84mi, 135km
Updated: Fri, 22-Feb-2019 7:00am CET
Mist, Partly cloudy
Mist, Partly cloudy
 Wind from calm
Wind: Calm
Temperature: 28°F , -2°C
Dew Point: 28°F , -2°C
Humidity: 100%
Barometer: 30.5 inHg , 1033 hPa
Summary: Mist
Clouds: Partly Cloudy
Visibility: 3 miles , 5 km
2019/02/22 06:00 LFQG 220600Z AUTO 00000KT 4800 BR NSC M02/M02 Q1033
LFLY - Lyon/Bron, France
Distance from station: E 86mi, 138km
Updated: Fri, 22-Feb-2019 7:00am CET
Partly Cloudy
Partly Cloudy
 Wind from N
Wind: N 8 mph , 13 km/h
Temperature: 46°F , 8°C
Wind Chill: 42°F , 6°C
Dew Point: 39°F , 4°C
Humidity: 76%
Barometer: 30.45 inHg , 1031 hPa
Clouds: Partly Cloudy
Visibility: 5 miles , 8 km
2019/02/22 06:00 LFLY 220600Z AUTO 35007KT 8000 NSC 08/04 Q1031 TEMPO 4000 BR
 
LFOA - Avord (fafb), France
Distance from station: NNW 90mi, 145km
Updated: Fri, 22-Feb-2019 7:00am CET
Partly Cloudy
Partly Cloudy
 Wind from E
Wind: E 6 mph , 9 km/h
Temperature: 36°F , 2°C
Wind Chill: 31°F , -1°C
Dew Point: 34°F , 1°C
Humidity: 93%
Barometer: 30.5 inHg , 1033 hPa
Clouds: Partly Cloudy
Visibility: 4 miles , 7 km
2019/02/22 06:00 LFOA 220600Z AUTO 08005KT 7000 NSC 02/01 Q1033 TEMPO 3000 BR
LFLL - Lyon/Satolas, France
Distance from station: E 92mi, 147km
Updated: Fri, 22-Feb-2019 7:00am CET
Partly Cloudy
Partly Cloudy
 Wind from N
Wind: N 2 mph , 4 km/h
Temperature: 39°F , 4°C
Dew Point: 36°F , 2°C
Humidity: 87%
Barometer: 30.45 inHg , 1031 hPa
Clouds: Partly Cloudy
Visibility: 4 miles , 6 km
2019/02/22 06:00 LFLL 220600Z 01002KT 6000 NSC 04/02 Q1031 NOSIG
 
LFBL - Limoges/Bellegar, France
Distance from station: W 97mi, 155km
Updated: Fri, 22-Feb-2019 7:00am CET
Clear
Clear
 Wind from NE
Wind: NE 5 mph , 7 km/h
Temperature: 43°F , 6°C
Wind Chill: 40°F , 4°C
Dew Point: 32°F , 0°C
Humidity: 66%
Barometer: 30.45 inHg , 1031 hPa
Summary: Clear
Visibility: greater than 7 miles , 10 km
2019/02/22 06:00 LFBL 220600Z AUTO 04004KT CAVOK 06/00 Q1031 NOSIG
LFSL - Brive/Souillac, France
Distance from station: WSW 97mi, 156km
Updated: Fri, 22-Feb-2019 7:00am CET
Clear
Clear
 Wind from calm
Wind: Calm
Temperature: 28°F , -2°C
Dew Point: 27°F , -3°C
Humidity: 93%
Barometer: 30.45 inHg , 1031 hPa
Summary: Clear
Visibility: greater than 7 miles , 10 km
2019/02/22 06:00 LFSL 220600Z AUTO 00000KT CAVOK M02/M03 Q1031 NOSIG
 
LFLX - Chateauroux/Deol, France
Distance from station: NW 101mi, 163km
Updated: Fri, 22-Feb-2019 7:00am CET
Partly Cloudy
Partly Cloudy
 Wind from ENE
Wind: ENE 5 mph , 7 km/h
Temperature: 36°F , 2°C
Wind Chill: 32°F , 0°C
Dew Point: 34°F , 1°C
Humidity: 93%
Barometer: 30.5 inHg , 1033 hPa
Clouds: Partly Cloudy
Visibility: 4 miles , 7 km
2019/02/22 06:00 LFLX 220600Z AUTO 07004KT 7000 NSC 02/01 Q1033 NOSIG
LFCR - Rodez/Marcillac, France
Distance from station: SSW 103mi, 165km
Updated: Fri, 22-Feb-2019 7:00am CET
Clear
Clear
 Wind from varies
Wind: varies 2 mph , 4 km/h
Temperature: 28°F , -2°C
Dew Point: 27°F , -3°C
Humidity: 93%
Barometer: 30.45 inHg , 1031 hPa
Summary: Clear
Visibility: greater than 7 miles , 10 km
2019/02/22 06:00 LFCR 220600Z AUTO VRB02KT CAVOK M02/M03 Q1031 NOSIG
 
LFLU - Valence-Chabeuil, France
Distance from station: ESE 107mi, 172km
Updated: Fri, 22-Feb-2019 7:00am CET
Clear
Clear
 Wind from N
Wind: N 21 mph , 33 km/h
Temperature: 48°F , 9°C
Wind Chill: 41°F , 5°C
Dew Point: 34°F , 1°C
Humidity: 58%
Barometer: 30.39 inHg , 1029 hPa
Summary: Clear
Visibility: greater than 7 miles , 10 km
2019/02/22 06:00 LFLU 220600Z AUTO 01018KT CAVOK 09/01 Q1029
LFLS - Grenoble/St. Geo, France
Distance from station: ESE 108mi, 174km
Updated: Fri, 22-Feb-2019 7:00am CET
Clear
Clear
 Wind from S
Wind: S 5 mph , 7 km/h
Temperature: 34°F , 1°C
Wind Chill: 29°F , -2°C
Dew Point: 30°F , -1°C
Humidity: 87%
Barometer: 30.42 inHg , 1030 hPa
Summary: Clear
Visibility: greater than 7 miles , 10 km
2019/02/22 06:00 LFLS 220600Z AUTO 18004KT 150V220 CAVOK 01/M01 Q1030 TEMPO 3000 BR
 
LFYR - Romorantin/Pruni, France
Distance from station: NW 128mi, 205km
Updated: Fri, 22-Feb-2019 7:00am CET
Partly Cloudy
Partly Cloudy
 Wind from calm
Wind: Calm
Temperature: 28°F , -2°C
Dew Point: 28°F , -2°C
Humidity: 100%
Barometer: 30.5 inHg , 1033 hPa
Clouds: Partly Cloudy
Visibility: 4 miles , 7 km
2019/02/22 06:00 LFYR 220600Z AUTO 00000KT 7000 NSC M02/M02 Q1033 TEMPO 1500 BCFG
LFLB - Chambery/Aix Bai, France
Distance from station: E 131mi, 210km
Updated: Fri, 22-Feb-2019 7:00am CET
Partly Cloudy
Partly Cloudy
 Wind from SSE
Wind: SSE 1 mph , 2 km/h
Temperature: 30°F , -1°C
Dew Point: 30°F , -1°C
Humidity: 100%
Barometer: 30.45 inHg , 1031 hPa
Clouds: Partly Cloudy
Visibility: 4 miles , 7 km
2019/02/22 06:00 LFLB 220600Z AUTO 15001KT 7000 NSC M01/M01 Q1031 TEMPO 36013G25KT
 
LFSD - Dijon/Longvic(Fa, France
Distance from station: NE 136mi, 219km
Updated: Fri, 22-Feb-2019 7:00am CET
Partly Cloudy
Partly Cloudy
 Wind from NNW
Wind: NNW 7 mph , 11 km/h
Temperature: 37°F , 3°C
Wind Chill: 32°F , 0°C
Dew Point: 34°F , 1°C
Humidity: 87%
Barometer: 30.5 inHg , 1033 hPa
Clouds: Partly Cloudy
Visibility: 6 miles , 9 km
2019/02/22 06:00 LFSD 220600Z AUTO 34006KT 9000 NSC 03/01 Q1033
LFGJ - Dole Tavaux, France
Distance from station: NE 139mi, 223km
Updated: Fri, 22-Feb-2019 7:00am CET
Mist, Partly cloudy
Mist, Partly cloudy
 Wind from NE
Wind: NE 3 mph , 6 km/h
Temperature: 32°F , 0°C
Dew Point: 30°F , -1°C
Humidity: 93%
Barometer: 30.5 inHg , 1033 hPa
Summary: Mist
Clouds: Partly Cloudy
Visibility: 2 miles , 3 km
2019/02/22 06:00 LFGJ 220600Z AUTO 04003KT 3000 BR NSC 00/M01 Q1033 TEMPO 0800 BCFG
 
LFLP - Annecy/Meythet, France
Distance from station: E 141mi, 226km
Updated: Fri, 22-Feb-2019 7:00am CET
Clear
Clear
 Wind from varies
Wind: varies 2 mph , 4 km/h
Temperature: 30°F , -1°C
Dew Point: 28°F , -2°C
Humidity: 93%
Barometer: 30.45 inHg , 1031 hPa
Summary: Clear
Visibility: greater than 7 miles , 10 km
2019/02/22 06:00 LFLP 220600Z AUTO VRB02KT CAVOK M01/M02 Q1031 TEMPO 4000 BR
LFBU - Brie Champniers, France
Distance from station: W 142mi, 229km
Updated: Fri, 22-Feb-2019 7:00am CET
Clear
Clear
 Wind from ESE
Wind: ESE 3 mph , 6 km/h
Temperature: 41°F , 5°C
Dew Point: 30°F , -1°C
Humidity: 66%
Barometer: 30.45 inHg , 1031 hPa
Summary: Clear
Visibility: greater than 7 miles , 10 km
2019/02/22 06:00 LFBU 220600Z AUTO 11003KT CAVOK 05/M01 Q1031 NOSIG

Metar display script from Saratoga-Weather.org